createdAt,value
2022-08-08T00:01:10.932Z,49.71
2022-08-08T00:03:48.021Z,49.63
2022-08-08T00:06:35.324Z,49.63
2022-08-08T00:09:07.755Z,49.50
2022-08-08T00:11:47.001Z,49.30
2022-08-08T00:14:48.503Z,49.24
2022-08-08T00:17:58.670Z,49.05
2022-08-08T00:20:17.834Z,49.14
2022-08-08T00:22:48.262Z,49.00
2022-08-08T00:25:19.141Z,49.12
2022-08-08T00:27:47.442Z,48.98
2022-08-08T00:30:17.633Z,49.00
2022-08-08T00:32:47.737Z,49.17
2022-08-08T00:35:39.548Z,49.62
2022-08-08T00:38:32.136Z,49.41
2022-08-08T00:42:08.347Z,49.50
2022-08-08T00:44:56.899Z,49.45
2022-08-08T00:48:06.647Z,49.36
2022-08-08T00:51:21.037Z,49.48
2022-08-08T00:54:36.727Z,49.46
2022-08-08T00:57:40.778Z,49.73
2022-08-08T01:00:16.131Z,49.68
2022-08-08T01:04:01.797Z,49.89
2022-08-08T01:07:05.741Z,50.07
2022-08-08T01:10:39.089Z,50.08
2022-08-08T01:13:43.754Z,50.13
2022-08-08T01:16:53.667Z,49.84
2022-08-08T01:20:08.050Z,50.12
2022-08-08T01:23:55.123Z,50.02
2022-08-08T01:29:17.948Z,50.24
2022-08-08T01:32:46.877Z,50.37
2022-08-08T01:35:40.930Z,50.49
2022-08-08T01:38:47.946Z,50.72
2022-08-08T01:41:19.579Z,50.96
2022-08-08T01:43:50.814Z,50.99
2022-08-08T01:46:40.034Z,51.25
2022-08-08T01:49:14.248Z,51.00
2022-08-08T01:52:59.140Z,51.24
2022-08-08T01:55:26.744Z,51.35
2022-08-08T01:58:11.805Z,51.15
2022-08-08T02:00:48.432Z,51.38
2022-08-08T02:03:56.826Z,51.49
2022-08-08T02:06:32.746Z,51.49
2022-08-08T02:09:17.985Z,51.33
2022-08-08T02:12:00.041Z,51.26
2022-08-08T02:14:55.673Z,51.34
2022-08-08T02:17:36.045Z,51.20
2022-08-08T02:20:59.852Z,51.37
2022-08-08T02:23:16.564Z,51.32
2022-08-08T02:25:50.893Z,51.30
2022-08-08T02:28:34.929Z,51.22
2022-08-08T02:31:43.228Z,51.09
2022-08-08T02:34:08.386Z,51.23
2022-08-08T02:36:41.395Z,51.09
2022-08-08T02:39:42.032Z,51.26
2022-08-08T02:42:42.564Z,51.41
2022-08-08T02:45:24.860Z,51.35
2022-08-08T02:48:32.185Z,51.64
2022-08-08T02:51:55.468Z,51.51
2022-08-08T02:54:50.203Z,51.57
2022-08-08T02:58:02.689Z,51.91
2022-08-08T03:00:50.887Z,51.68
2022-08-08T03:05:04.716Z,51.68
2022-08-08T03:07:07.205Z,51.73
2022-08-08T03:10:01.888Z,51.76
2022-08-08T03:13:07.546Z,51.60
2022-08-08T03:16:34.484Z,51.81
2022-08-08T03:19:29.833Z,51.72
2022-08-08T03:21:59.699Z,51.60
2022-08-08T03:24:31.369Z,51.72
2022-08-08T03:27:05.110Z,51.64
2022-08-08T03:29:55.411Z,51.56
2022-08-08T03:32:47.256Z,51.71
2022-08-08T03:35:22.829Z,51.75
2022-08-08T03:37:59.357Z,51.71
2022-08-08T03:40:40.458Z,51.59
2022-08-08T03:43:15.628Z,51.96
2022-08-08T03:46:04.750Z,51.79
2022-08-08T03:49:30.317Z,52.02
2022-08-08T03:51:50.530Z,52.07
2022-08-08T03:54:41.154Z,51.94
2022-08-08T03:58:09.513Z,51.92
2022-08-08T04:00:07.291Z,52.19
2022-08-08T04:02:51.605Z,52.18
2022-08-08T04:05:27.357Z,52.12
2022-08-08T04:08:00.561Z,52.27
2022-08-08T04:10:31.908Z,52.32
2022-08-08T04:13:18.011Z,52.24
2022-08-08T04:15:54.606Z,52.41
2022-08-08T04:18:41.900Z,52.53
2022-08-08T04:21:13.232Z,52.33
2022-08-08T04:24:05.216Z,52.45
2022-08-08T04:26:35.531Z,52.47
2022-08-08T04:29:12.325Z,52.45
2022-08-08T04:31:59.473Z,52.34
2022-08-08T04:34:32.165Z,52.48
2022-08-08T04:37:19.246Z,52.50
2022-08-08T04:40:05.962Z,52.58
2022-08-08T04:42:55.916Z,52.55
2022-08-08T04:45:30.090Z,52.85
2022-08-08T04:48:00.956Z,52.81
2022-08-08T04:50:38.289Z,52.64
2022-08-08T04:53:13.730Z,52.75
2022-08-08T04:55:57.230Z,52.75
2022-08-08T04:58:29.417Z,52.80
2022-08-08T05:01:00.119Z,52.82
2022-08-08T05:04:11.123Z,52.91
2022-08-08T05:06:29.176Z,53.05
2022-08-08T05:09:02.177Z,53.21
2022-08-08T05:11:39.002Z,52.73
2022-08-08T05:14:12.405Z,52.76
2022-08-08T05:16:50.743Z,52.84
2022-08-08T05:20:11.230Z,52.82
2022-08-08T05:22:13.804Z,52.80
2022-08-08T05:24:49.301Z,52.76
2022-08-08T05:27:20.683Z,52.96
2022-08-08T05:29:50.298Z,52.90
2022-08-08T05:32:26.967Z,52.85
2022-08-08T05:35:04.588Z,52.91
2022-08-08T05:37:53.304Z,53.14
2022-08-08T05:40:31.565Z,53.22
2022-08-08T05:43:38.474Z,53.23
2022-08-08T05:46:02.909Z,53.04
2022-08-08T05:48:37.726Z,53.23
2022-08-08T05:51:14.488Z,53.18
2022-08-08T05:54:24.790Z,53.43
2022-08-08T05:56:38.691Z,53.46
2022-08-08T05:59:15.070Z,53.47
2022-08-08T06:02:03.166Z,53.58
2022-08-08T06:04:32.699Z,53.58
2022-08-08T06:07:04.986Z,53.67
2022-08-08T06:09:58.422Z,53.58
2022-08-08T06:12:30.967Z,53.43
2022-08-08T06:15:03.708Z,53.64
2022-08-08T06:18:18.431Z,53.75
2022-08-08T06:20:27.589Z,53.62
2022-08-08T06:22:57.877Z,53.68
2022-08-08T06:26:38.822Z,53.52
2022-08-08T06:28:29.046Z,53.75
2022-08-08T06:31:00.016Z,53.66
2022-08-08T06:33:37.282Z,53.68
2022-08-08T06:36:29.270Z,53.74
2022-08-08T06:38:57.446Z,53.81
2022-08-08T06:41:29.719Z,53.78
2022-08-08T06:44:03.651Z,53.73
2022-08-08T06:46:36.078Z,53.77
2022-08-08T06:49:05.785Z,53.78
2022-08-08T06:51:46.952Z,53.87
2022-08-08T06:54:22.731Z,53.66
2022-08-08T06:56:51.711Z,53.75
2022-08-08T06:59:21.764Z,53.58
2022-08-08T07:02:21.505Z,53.64
2022-08-08T07:04:51.924Z,53.65
2022-08-08T07:07:32.761Z,53.72
2022-08-08T07:10:08.185Z,53.66
2022-08-08T07:12:48.069Z,53.61
2022-08-08T07:16:01.228Z,53.73
2022-08-08T07:18:35.156Z,53.66
2022-08-08T07:21:18.692Z,53.44
2022-08-08T07:24:00.907Z,53.49
2022-08-08T07:26:35.192Z,53.19
2022-08-08T07:29:11.399Z,53.11
2022-08-08T07:31:48.859Z,53.12
2022-08-08T07:34:20.495Z,52.86
2022-08-08T07:37:11.983Z,52.81
2022-08-08T07:39:45.413Z,52.70
2022-08-08T07:42:18.884Z,52.90
2022-08-08T07:44:48.223Z,52.31
2022-08-08T07:47:29.268Z,52.23
2022-08-08T07:50:10.010Z,52.07
2022-08-08T07:52:43.910Z,51.96
2022-08-08T07:55:20.298Z,52.05
2022-08-08T07:57:58.173Z,51.67
2022-08-08T08:00:30.454Z,51.73
2022-08-08T08:03:14.173Z,51.33
2022-08-08T08:05:51.742Z,51.32
2022-08-08T08:08:28.252Z,50.53
2022-08-08T08:10:59.474Z,49.79
2022-08-08T08:13:43.027Z,49.23
2022-08-08T08:16:25.336Z,49.56
2022-08-08T08:18:59.811Z,49.52
2022-08-08T08:21:52.853Z,49.03
2022-08-08T08:24:35.201Z,49.20
2022-08-08T08:27:08.437Z,48.33
2022-08-08T08:29:42.449Z,48.54
2022-08-08T08:32:24.124Z,48.13
2022-08-08T08:35:03.506Z,47.67
2022-08-08T08:37:32.524Z,47.80
2022-08-08T08:40:03.101Z,47.08
2022-08-08T08:42:39.133Z,46.99
2022-08-08T08:45:23.531Z,46.82
2022-08-08T08:48:02.641Z,46.61
2022-08-08T08:50:36.863Z,46.38
2022-08-08T08:53:54.695Z,46.17
2022-08-08T08:56:09.777Z,45.85
2022-08-08T08:58:49.978Z,45.51
2022-08-08T09:01:24.832Z,44.80
2022-08-08T09:03:54.730Z,44.69
2022-08-08T09:06:33.550Z,44.76
2022-08-08T09:09:26.260Z,44.40
2022-08-08T09:12:07.778Z,44.04
2022-08-08T09:14:42.565Z,43.78
2022-08-08T09:17:18.370Z,43.66
2022-08-08T09:21:58.257Z,43.49
2022-08-08T09:22:40.130Z,43.37
2022-08-08T09:25:11.305Z,43.35
2022-08-08T09:27:57.465Z,43.12
2022-08-08T09:30:31.346Z,42.82
2022-08-08T09:33:55.362Z,42.88
2022-08-08T09:35:52.454Z,43.15
2022-08-08T09:38:32.738Z,43.34
2022-08-08T09:41:05.410Z,42.87
2022-08-08T09:43:41.276Z,43.16
2022-08-08T09:46:30.611Z,43.02
2022-08-08T09:49:17.977Z,43.02
2022-08-08T09:52:06.232Z,43.08
2022-08-08T09:54:38.293Z,43.17
2022-08-08T09:57:07.452Z,43.09
2022-08-08T09:59:50.151Z,43.12
2022-08-08T10:02:44.809Z,42.84
2022-08-08T10:05:25.107Z,42.62
2022-08-08T10:07:59.998Z,42.23
2022-08-08T10:10:31.429Z,41.70
2022-08-08T10:13:05.982Z,41.58
2022-08-08T10:15:42.275Z,42.03
2022-08-08T10:18:31.832Z,42.02
2022-08-08T10:21:22.668Z,41.68
2022-08-08T10:23:57.998Z,41.70
2022-08-08T10:26:52.026Z,41.75
2022-08-08T10:29:28.135Z,41.60
2022-08-08T10:32:17.129Z,41.39
2022-08-08T10:35:01.335Z,40.50
2022-08-08T10:37:31.499Z,40.56
2022-08-08T10:40:16.293Z,40.75
2022-08-08T10:42:45.591Z,40.31
2022-08-08T10:45:16.092Z,40.43
2022-08-08T10:47:48.537Z,39.76
2022-08-08T10:50:32.537Z,39.66
2022-08-08T10:53:07.674Z,39.11
2022-08-08T10:55:48.149Z,39.01
2022-08-08T10:58:18.516Z,39.12
2022-08-08T11:00:52.547Z,38.60
2022-08-08T11:03:52.315Z,38.75
2022-08-08T11:06:22.096Z,38.42
2022-08-08T11:08:53.526Z,38.31
2022-08-08T11:12:00.223Z,38.33
2022-08-08T11:14:12.361Z,37.68
2022-08-08T11:16:46.721Z,37.72
2022-08-08T11:19:17.272Z,37.16
2022-08-08T11:21:56.308Z,36.98
2022-08-08T11:24:26.467Z,37.01
2022-08-08T11:26:57.201Z,36.61
2022-08-08T11:29:41.501Z,36.55
2022-08-08T11:32:17.641Z,36.24
2022-08-08T11:38:35.183Z,36.22
2022-08-08T11:40:27.337Z,36.46
2022-08-08T11:43:00.890Z,36.75
2022-08-08T11:45:29.705Z,36.77
2022-08-08T11:48:09.700Z,37.37
2022-08-08T11:50:39.699Z,37.10
2022-08-08T11:53:09.809Z,35.55
2022-08-08T11:55:52.240Z,35.37
2022-08-08T11:58:21.830Z,35.30
2022-08-08T12:00:53.278Z,34.59
2022-08-08T12:03:23.959Z,34.50
2022-08-08T12:05:55.912Z,33.97
2022-08-08T12:08:39.113Z,34.17
2022-08-08T12:11:12.195Z,33.44
2022-08-08T12:14:03.590Z,33.82
2022-08-08T12:16:43.436Z,33.19
2022-08-08T12:19:15.745Z,32.49
2022-08-08T12:21:59.174Z,32.33
2022-08-08T12:24:33.534Z,32.32
2022-08-08T12:27:01.755Z,31.82
2022-08-08T12:29:42.382Z,31.97
2022-08-08T12:32:20.337Z,31.81
2022-08-08T12:35:13.299Z,31.05
2022-08-08T12:38:01.309Z,30.10
2022-08-08T12:40:54.408Z,30.02
2022-08-08T12:43:31.915Z,30.27
2022-08-08T12:46:03.445Z,31.24
2022-08-08T12:48:37.161Z,30.92
2022-08-08T12:51:11.245Z,31.14
2022-08-08T12:53:48.037Z,30.80
2022-08-08T12:56:23.848Z,30.30
2022-08-08T12:58:54.379Z,30.40
2022-08-08T13:01:36.846Z,30.56
2022-08-08T13:04:18.578Z,30.04
2022-08-08T13:06:56.781Z,29.91
2022-08-08T13:10:00.750Z,29.08
2022-08-08T13:12:28.963Z,28.49
2022-08-08T13:14:58.822Z,28.92
2022-08-08T13:17:54.178Z,28.95
2022-08-08T13:20:22.077Z,29.25
2022-08-08T13:22:55.948Z,28.04
2022-08-08T13:25:36.886Z,28.22
2022-08-08T13:28:12.136Z,27.73
2022-08-08T13:30:45.473Z,27.03
2022-08-08T13:33:13.781Z,26.94
2022-08-08T13:35:50.710Z,26.96
2022-08-08T13:38:19.310Z,26.85
2022-08-08T13:40:48.198Z,26.91
2022-08-08T13:43:21.326Z,26.18
2022-08-08T13:45:54.390Z,26.52
2022-08-08T13:48:25.238Z,26.70
2022-08-08T13:51:25.170Z,26.42
2022-08-08T13:53:53.259Z,26.67
2022-08-08T13:56:32.319Z,26.44
2022-08-08T13:59:02.093Z,25.67
2022-08-08T14:01:42.164Z,25.49
2022-08-08T14:04:25.171Z,25.63
2022-08-08T14:06:59.656Z,24.63
2022-08-08T14:10:04.266Z,24.78
2022-08-08T14:12:23.053Z,24.67
2022-08-08T14:14:53.179Z,25.18
2022-08-08T14:17:58.087Z,24.93
2022-08-08T14:20:15.492Z,24.81
2022-08-08T14:23:21.024Z,24.60
2022-08-08T14:26:10.556Z,24.69
2022-08-08T14:28:40.319Z,24.06
2022-08-08T14:31:11.498Z,24.54
2022-08-08T14:33:52.875Z,23.45
2022-08-08T14:36:34.484Z,23.60
2022-08-08T14:39:11.420Z,23.68
2022-08-08T14:41:53.246Z,24.19
2022-08-08T14:44:35.138Z,23.68
2022-08-08T14:47:16.764Z,23.02
2022-08-08T14:50:06.292Z,23.08
2022-08-08T14:53:05.153Z,22.84
2022-08-08T14:55:41.893Z,22.53
2022-08-08T14:58:16.609Z,22.71
2022-08-08T15:00:49.705Z,22.77
2022-08-08T15:03:20.098Z,22.63
2022-08-08T15:05:54.640Z,22.26
2022-08-08T15:08:34.675Z,22.60
2022-08-08T15:11:09.372Z,22.19
2022-08-08T15:14:01.110Z,22.21
2022-08-08T15:16:34.752Z,22.42
2022-08-08T15:19:05.880Z,22.09
2022-08-08T15:21:37.956Z,22.19
2022-08-08T15:24:16.230Z,21.98
2022-08-08T15:26:52.884Z,22.08
2022-08-08T15:29:22.502Z,22.31
2022-08-08T15:32:03.973Z,22.25
2022-08-08T15:34:43.070Z,21.95
2022-08-08T15:37:15.909Z,21.06
2022-08-08T15:39:45.619Z,20.97
2022-08-08T15:42:33.176Z,20.81
2022-08-08T15:45:05.206Z,20.68
2022-08-08T15:47:33.417Z,21.56
2022-08-08T15:50:16.759Z,21.58
2022-08-08T15:52:51.237Z,21.40
2022-08-08T15:55:20.384Z,22.00
2022-08-08T15:57:49.203Z,21.86
2022-08-08T16:00:26.710Z,22.04
2022-08-08T16:02:57.833Z,21.28
2022-08-08T16:05:35.399Z,22.07
2022-08-08T16:08:19.953Z,21.66
2022-08-08T16:13:14.923Z,22.01
2022-08-08T16:13:43.861Z,21.38
2022-08-08T16:16:18.075Z,21.69
2022-08-08T16:18:57.279Z,21.50
2022-08-08T16:21:29.516Z,21.62
2022-08-08T16:23:58.491Z,22.24
2022-08-08T16:26:34.815Z,22.00
2022-08-08T16:29:08.131Z,20.58
2022-08-08T16:31:49.204Z,20.82
2022-08-08T16:34:19.061Z,20.89
2022-08-08T16:36:50.899Z,20.77
2022-08-08T16:39:27.829Z,20.84
2022-08-08T16:42:01.146Z,21.01
2022-08-08T16:44:33.928Z,20.25
2022-08-08T16:47:22.004Z,20.67
2022-08-08T16:50:13.590Z,20.88
2022-08-08T16:55:00.529Z,21.37
2022-08-08T16:55:52.692Z,20.82
2022-08-08T16:58:26.408Z,21.83
2022-08-08T17:00:55.355Z,22.59
2022-08-08T17:04:00.543Z,22.68
2022-08-08T17:06:35.418Z,22.45
2022-08-08T17:09:04.081Z,22.55
2022-08-08T17:11:39.393Z,22.34
2022-08-08T17:14:19.378Z,22.21
2022-08-08T17:16:57.362Z,22.02
2022-08-08T17:19:27.465Z,22.46
2022-08-08T17:21:57.862Z,22.55
2022-08-08T17:24:31.675Z,23.18
2022-08-08T17:27:00.423Z,23.28
2022-08-08T17:29:33.787Z,23.36
2022-08-08T17:32:02.586Z,23.79
2022-08-08T17:34:36.902Z,23.87
2022-08-08T17:37:19.510Z,24.24
2022-08-08T17:40:10.923Z,24.28
2022-08-08T17:42:37.636Z,24.65
2022-08-08T17:45:21.114Z,24.70
2022-08-08T17:47:52.299Z,24.98
2022-08-08T17:50:22.658Z,25.25
2022-08-08T17:52:50.928Z,25.91
2022-08-08T17:56:05.737Z,26.36
2022-08-08T17:58:09.339Z,26.94
2022-08-08T18:00:39.190Z,26.77
2022-08-08T18:03:13.664Z,27.00
2022-08-08T18:05:49.836Z,27.00
2022-08-08T18:08:37.719Z,26.56
2022-08-08T18:11:15.135Z,27.25
2022-08-08T18:13:45.798Z,26.97
2022-08-08T18:16:17.310Z,28.22
2022-08-08T18:18:52.863Z,29.02
2022-08-08T18:21:35.614Z,29.20
2022-08-08T18:24:17.373Z,29.46
2022-08-08T18:26:53.646Z,29.47
2022-08-08T18:29:27.199Z,30.14
2022-08-08T18:31:58.995Z,30.61
2022-08-08T18:34:28.050Z,31.08
2022-08-08T18:36:56.763Z,31.35
2022-08-08T18:39:28.310Z,31.86
2022-08-08T18:42:03.797Z,32.38
2022-08-08T18:44:36.037Z,33.23
2022-08-08T18:47:05.033Z,34.02
2022-08-08T18:49:57.451Z,34.11
2022-08-08T18:52:23.401Z,34.24
2022-08-08T18:55:00.732Z,36.24
2022-08-08T18:57:41.150Z,37.79
2022-08-08T19:00:17.050Z,39.49
2022-08-08T19:02:55.841Z,40.04
2022-08-08T19:05:32.255Z,40.74
2022-08-08T19:08:24.821Z,40.93
2022-08-08T19:10:57.729Z,41.72
2022-08-08T19:13:53.780Z,42.23
2022-08-08T19:16:19.489Z,42.97
2022-08-08T19:18:54.506Z,43.20
2022-08-08T19:21:30.685Z,43.61
2022-08-08T19:23:59.422Z,43.36
2022-08-08T19:26:30.854Z,43.87
2022-08-08T19:29:00.738Z,44.34
2022-08-08T19:31:31.328Z,44.57
2022-08-08T19:34:04.654Z,45.08
2022-08-08T19:36:52.772Z,45.74
2022-08-08T19:39:22.976Z,46.10
2022-08-08T19:41:51.310Z,46.71
2022-08-08T19:44:42.360Z,47.14
2022-08-08T19:47:08.895Z,47.53
2022-08-08T19:49:38.061Z,47.91
2022-08-08T19:52:07.954Z,47.96
2022-08-08T19:54:38.802Z,47.99
2022-08-08T19:57:07.889Z,48.15
2022-08-08T19:59:39.275Z,48.28
2022-08-08T20:02:07.630Z,48.19
2022-08-08T20:04:38.858Z,48.10
2022-08-08T20:08:31.235Z,48.23
2022-08-08T20:09:58.525Z,47.77
2022-08-08T20:12:32.634Z,48.00
2022-08-08T20:15:16.729Z,48.17
2022-08-08T20:17:46.655Z,48.37
2022-08-08T20:20:19.177Z,48.53
2022-08-08T20:22:53.901Z,48.29
2022-08-08T20:25:22.623Z,48.43
2022-08-08T20:27:54.004Z,48.25
2022-08-08T20:30:52.444Z,48.09
2022-08-08T20:35:57.150Z,48.28
2022-08-08T20:38:32.792Z,48.48
2022-08-08T20:41:12.162Z,48.18
2022-08-08T20:43:49.663Z,48.24
2022-08-08T20:46:20.976Z,48.15
2022-08-08T20:48:55.573Z,48.00
2022-08-08T20:51:27.380Z,47.68
2022-08-08T20:54:03.356Z,47.46
2022-08-08T20:57:04.490Z,47.64
2022-08-08T20:59:27.135Z,47.46
2022-08-08T21:02:06.358Z,47.50
2022-08-08T21:04:36.909Z,47.62
2022-08-08T21:07:08.333Z,47.42
2022-08-08T21:09:48.523Z,47.38
2022-08-08T21:12:33.351Z,47.50
2022-08-08T21:15:07.162Z,47.45
2022-08-08T21:17:38.995Z,47.54
2022-08-08T21:20:08.958Z,47.32
2022-08-08T21:22:37.955Z,47.24
2022-08-08T21:25:13.458Z,47.26
2022-08-08T21:28:09.376Z,47.18
2022-08-08T21:30:31.180Z,47.12
2022-08-08T21:33:00.749Z,47.13
2022-08-08T21:36:16.992Z,47.30
2022-08-08T21:38:27.142Z,47.38
2022-08-08T21:40:57.082Z,47.39
2022-08-08T21:43:31.317Z,47.46
2022-08-08T21:48:05.839Z,47.68
2022-08-08T21:48:54.001Z,47.60
2022-08-08T21:54:23.065Z,47.87
2022-08-08T21:54:36.676Z,47.64
2022-08-08T21:57:00.335Z,48.11
2022-08-08T21:59:44.179Z,48.12
2022-08-08T22:02:19.626Z,48.05
2022-08-08T22:04:56.133Z,48.12
2022-08-08T22:07:39.845Z,48.31
2022-08-08T22:10:09.923Z,48.06
2022-08-08T22:12:47.055Z,48.29
2022-08-08T22:15:15.192Z,48.24
2022-08-08T22:17:45.531Z,48.22
2022-08-08T22:20:23.590Z,48.08
2022-08-08T22:22:52.679Z,48.32
2022-08-08T22:25:25.481Z,48.29
2022-08-08T22:28:02.517Z,48.34
2022-08-08T22:30:33.492Z,48.30
2022-08-08T22:33:01.970Z,48.44
2022-08-08T22:36:04.639Z,48.43
2022-08-08T22:38:19.969Z,48.61
2022-08-08T22:40:49.327Z,48.56
2022-08-08T22:43:17.727Z,48.67
2022-08-08T22:45:46.692Z,48.83
2022-08-08T22:48:21.600Z,48.53
2022-08-08T22:50:52.035Z,48.85
2022-08-08T22:54:28.204Z,48.93
2022-08-08T22:56:08.617Z,48.96
2022-08-08T22:58:38.142Z,48.92
2022-08-08T23:01:16.498Z,48.67
2022-08-08T23:03:56.209Z,48.99
2022-08-08T23:06:26.643Z,48.71
2022-08-08T23:08:59.057Z,48.89
2022-08-08T23:12:28.791Z,48.67
2022-08-08T23:14:18.865Z,49.09
2022-08-08T23:16:54.430Z,49.04
2022-08-08T23:19:26.239Z,48.83
2022-08-08T23:21:55.740Z,48.52
2022-08-08T23:24:23.845Z,48.86
2022-08-08T23:26:55.508Z,48.90
2022-08-08T23:29:25.142Z,48.78
2022-08-08T23:31:53.492Z,48.70
2022-08-08T23:34:21.825Z,48.97
2022-08-08T23:36:52.333Z,48.93
2022-08-08T23:39:24.946Z,49.07
2022-08-08T23:42:00.760Z,49.27
2022-08-08T23:44:30.171Z,49.04
2022-08-08T23:49:07.769Z,49.13
2022-08-08T23:50:03.281Z,48.95
2022-08-08T23:52:34.302Z,49.05
2022-08-08T23:55:14.081Z,49.44
2022-08-08T23:57:53.211Z,49.33
